Time;durP1;ratioP1;P1;durP2;ratioP2;P2;SDS_P1;SDS_P2;PMS_P1;PMS_P2;Temp;Humidity;BMP_temperature;BMP_pressure;BME280_temperature;BME280_humidity;BME280_pressure;Samples;Min_cycle;Max_cycle;Signal;HPM_P1;HPM_P2
2022/08/04 00:02:16;;;;;;;7.60;4.45;;;21.60;99.90;;;;;;5036025;28;20479;-76
2022/08/04 00:04:52;;;;;;;10.52;4.82;;;21.60;99.90;;;;;;5017022;28;20033;-76
2022/08/04 00:07:40;;;;;;;7.95;4.18;;;21.50;99.90;;;;;;5034360;28;20052;-77
2022/08/04 00:10:07;;;;;;;13.00;4.90;;;21.60;99.90;;;;;;5034151;28;20030;-76
2022/08/04 00:12:40;;;;;;;7.10;4.13;;;21.50;99.90;;;;;;5033532;28;20021;-77
2022/08/04 00:15:12;;;;;;;11.13;4.68;;;21.50;99.90;;;;;;5035650;28;20029;-76
2022/08/04 00:17:42;;;;;;;8.20;4.47;;;21.50;99.90;;;;;;5035441;28;20049;-78
2022/08/04 00:20:11;;;;;;;9.82;4.30;;;21.50;99.90;;;;;;5035906;28;20037;-77
2022/08/04 00:22:41;;;;;;;12.82;4.45;;;21.40;99.90;;;;;;5035106;28;20096;-78
2022/08/04 00:25:07;;;;;;;11.00;4.15;;;21.40;99.90;;;;;;5017700;28;20033;-76
2022/08/04 00:27:33;;;;;;;16.15;4.50;;;21.40;99.90;;;;;;5036476;28;20120;-77
2022/08/04 00:29:59;;;;;;;6.57;4.38;;;21.40;99.90;;;;;;5035625;28;20022;-77
2022/08/04 00:32:28;;;;;;;7.38;4.25;;;21.30;99.90;;;;;;5035539;28;20432;-78
2022/08/04 00:34:57;;;;;;;6.40;4.22;;;21.30;99.90;;;;;;5034498;28;20037;-78
2022/08/04 00:37:25;;;;;;;9.80;4.25;;;21.30;99.90;;;;;;5046426;28;20053;-78
2022/08/04 00:39:53;;;;;;;11.98;4.63;;;21.30;99.90;;;;;;5016048;28;20083;-77
2022/08/04 00:42:50;;;;;;;7.63;4.40;;;21.30;99.90;;;;;;5033641;28;20055;-76
2022/08/04 00:45:50;;;;;;;10.00;4.45;;;21.30;99.90;;;;;;5036788;28;20033;-78
2022/08/04 00:48:36;;;;;;;9.80;4.70;;;21.30;99.90;;;;;;5036146;28;20025;-78
2022/08/04 00:51:30;;;;;;;6.55;4.43;;;21.30;99.90;;;;;;5035542;28;20030;-77
2022/08/04 00:54:29;;;;;;;10.38;4.32;;;21.20;99.90;;;;;;5036905;28;20071;-76
2022/08/04 00:57:23;;;;;;;11.02;4.80;;;21.20;99.90;;;;;;5036876;28;20034;-76
2022/08/04 01:00:10;;;;;;;7.60;4.45;;;21.10;99.90;;;;;;5037212;28;20029;-79
2022/08/04 01:02:37;;;;;;;10.95;4.80;;;21.10;99.90;;;;;;5036480;28;20112;-77
2022/08/04 01:05:20;;;;;;;8.38;4.72;;;21.10;99.90;;;;;;5002501;28;20032;-75
2022/08/04 01:08:08;;;;;;;9.93;4.70;;;21.10;99.90;;;;;;5018769;28;20397;-77
2022/08/04 01:11:10;;;;;;;9.18;4.40;;;21.10;99.90;;;;;;5036254;28;20493;-76
2022/08/04 01:13:59;;;;;;;9.75;4.55;;;21.10;99.90;;;;;;5031731;28;20398;-75
2022/08/04 01:16:26;;;;;;;7.03;4.22;;;21.20;99.90;;;;;;5033339;28;20036;-76
2022/08/04 01:19:18;;;;;;;7.10;4.65;;;21.20;99.90;;;;;;5014999;28;20545;-77
2022/08/04 01:21:50;;;;;;;9.27;4.55;;;21.20;99.90;;;;;;5011485;28;20041;-79
2022/08/04 01:24:29;;;;;;;8.98;4.57;;;21.10;99.90;;;;;;5034820;28;20026;-77
2022/08/04 01:27:19;;;;;;;10.65;4.57;;;21.10;99.90;;;;;;5035506;28;20079;-77
2022/08/04 01:29:50;;;;;;;7.75;4.10;;;21.10;99.90;;;;;;5034987;28;20489;-77
2022/08/04 01:32:20;;;;;;;7.15;3.75;;;21.10;99.90;;;;;;5034220;28;20108;-77
2022/08/04 01:34:53;;;;;;;6.93;4.03;;;21.00;99.90;;;;;;5016355;28;20034;-77
2022/08/04 01:37:52;;;;;;;7.70;4.40;;;21.00;99.90;;;;;;5034308;28;20029;-75
2022/08/04 01:40:20;;;;;;;10.02;4.60;;;20.90;99.90;;;;;;5035618;28;20034;-78
2022/08/04 01:42:51;;;;;;;8.18;4.50;;;20.90;99.90;;;;;;5036025;28;20025;-76
2022/08/04 01:45:16;;;;;;;8.57;4.93;;;20.90;99.90;;;;;;5035407;28;20034;-77
2022/08/04 01:47:49;;;;;;;11.13;4.63;;;20.90;99.90;;;;;;5035400;28;20068;-77
2022/08/04 01:50:15;;;;;;;9.52;4.65;;;20.80;99.90;;;;;;5036212;28;20033;-76
2022/08/04 01:52:42;;;;;;;7.18;4.22;;;20.80;99.90;;;;;;5036545;28;20020;-76
2022/08/04 01:55:11;;;;;;;8.85;4.32;;;20.80;99.90;;;;;;5041747;28;20064;-76
2022/08/04 01:57:42;;;;;;;6.47;4.30;;;20.80;99.90;;;;;;5033223;28;20026;-77
2022/08/04 02:00:13;;;;;;;11.52;4.55;;;20.90;99.90;;;;;;5033633;28;20086;-79
2022/08/04 02:02:38;;;;;;;6.97;3.88;;;20.90;99.90;;;;;;5017091;28;20489;-77
2022/08/04 02:05:08;;;;;;;9.15;3.72;;;20.90;99.90;;;;;;5033089;28;20053;-78
2022/08/04 02:08:06;;;;;;;9.98;4.63;;;20.80;99.90;;;;;;5031816;28;20088;-77
2022/08/04 02:10:41;;;;;;;7.15;4.72;;;20.80;99.90;;;;;;4998942;28;20068;-77
2022/08/04 02:13:06;;;;;;;;;;;20.70;99.90;;;;;;5032617;28;20110;-77
2022/08/04 02:15:54;;;;;;;7.75;4.63;;;20.60;99.90;;;;;;5014575;28;20387;-76
2022/08/04 02:18:29;;;;;;;5.15;4.40;;;20.50;99.90;;;;;;5031750;28;20030;-76
2022/08/04 02:21:00;;;;;;;6.60;4.30;;;20.50;99.90;;;;;;5032083;28;20067;-76
2022/08/04 02:23:37;;;;;;;9.30;4.45;;;20.50;99.90;;;;;;5032475;28;20022;-77
2022/08/04 02:26:10;;;;;;;11.50;4.53;;;20.40;99.90;;;;;;5032565;28;20029;-78
2022/08/04 02:28:51;;;;;;;9.63;4.65;;;20.30;99.90;;;;;;5031874;28;20025;-77
2022/08/04 02:31:27;;;;;;;8.95;4.38;;;20.30;99.90;;;;;;5032456;28;20474;-77
2022/08/04 02:34:12;;;;;;;8.10;4.55;;;20.30;99.90;;;;;;5033133;28;20489;-76
2022/08/04 02:36:41;;;;;;;6.63;4.50;;;20.30;99.90;;;;;;5041541;28;20076;-77
2022/08/04 02:39:10;;;;;;;8.43;4.38;;;20.30;99.90;;;;;;5018649;28;20025;-78
2022/08/04 02:41:37;;;;;;;7.65;4.82;;;20.30;99.90;;;;;;5038989;28;20033;-78
2022/08/04 02:44:05;;;;;;;6.10;4.65;;;20.30;99.90;;;;;;5036883;28;20048;-77
2022/08/04 02:46:33;;;;;;;9.93;4.55;;;20.30;99.90;;;;;;5037633;28;20021;-77
2022/08/04 02:49:02;;;;;;;12.55;4.75;;;20.30;99.90;;;;;;5019808;28;20041;-75
2022/08/04 02:51:32;;;;;;;8.38;4.32;;;20.30;99.90;;;;;;5036869;28;20045;-76
2022/08/04 02:53:59;;;;;;;7.35;4.88;;;20.30;99.90;;;;;;5036519;28;20025;-77
2022/08/04 02:56:31;;;;;;;5.10;4.13;;;20.40;99.90;;;;;;5035803;28;20104;-77
2022/08/04 02:59:01;;;;;;;6.28;4.53;;;20.30;99.90;;;;;;5035784;28;20141;-77
2022/08/04 03:01:27;;;;;;;10.30;4.80;;;20.30;99.90;;;;;;5017748;28;20029;-78
2022/08/04 03:04:27;;;;;;;6.95;4.40;;;20.40;99.90;;;;;;5035298;28;20470;-77
2022/08/04 03:06:53;;;;;;;8.50;4.75;;;20.30;99.90;;;;;;5035608;28;20501;-78
2022/08/04 03:10:00;;;;;;;6.60;4.63;;;20.30;99.90;;;;;;5035774;28;20022;-77
2022/08/04 03:13:03;;;;;;;11.90;5.07;;;20.20;99.90;;;;;;5017574;28;20029;-76
2022/08/04 03:16:13;;;;;;;13.93;5.85;;;20.20;99.90;;;;;;5035434;28;20029;-78
2022/08/04 03:19:00;;;;;;;8.77;5.22;;;20.10;99.90;;;;;;5009623;28;20045;-76
2022/08/04 03:21:44;;;;;;;7.97;5.05;;;20.00;99.90;;;;;;5042256;28;20037;-77
2022/08/04 03:24:13;;;;;;;10.80;5.32;;;20.00;99.90;;;;;;5035195;28;20039;-77
2022/08/04 03:26:51;;;;;;;12.40;5.55;;;19.90;99.90;;;;;;5035248;28;20035;-77
2022/08/04 03:29:36;;;;;;;12.68;5.20;;;19.90;99.90;;;;;;5035919;28;20545;-76
2022/08/04 03:32:39;;;;;;;8.57;5.63;;;19.90;99.90;;;;;;5035966;28;20078;-76
2022/08/04 03:35:24;;;;;;;10.68;5.38;;;19.80;99.90;;;;;;5034876;28;20037;-77
2022/08/04 03:38:27;;;;;;;13.18;6.38;;;19.80;99.90;;;;;;5035027;28;20045;-77
2022/08/04 03:41:05;;;;;;;7.65;5.28;;;19.80;99.90;;;;;;5017402;28;20104;-76
2022/08/04 03:44:15;;;;;;;11.65;6.10;;;19.80;99.90;;;;;;5017178;28;20030;-76
2022/08/04 03:47:29;;;;;;;13.20;5.35;;;19.80;99.90;;;;;;4957257;28;20562;-76
2022/08/04 03:50:21;;;;;;;13.80;5.13;;;19.80;99.90;;;;;;4939662;28;20482;-78
2022/08/04 03:53:26;;;;;;;13.75;5.72;;;19.70;99.90;;;;;;5035731;28;20473;-77
2022/08/04 03:56:24;;;;;;;9.32;5.15;;;19.80;99.90;;;;;;5036025;28;20045;-77
2022/08/04 03:58:56;;;;;;;8.40;5.55;;;19.80;99.90;;;;;;5034254;28;20077;-78
2022/08/04 04:01:24;;;;;;;12.90;5.90;;;19.80;99.90;;;;;;5035742;28;20493;-77
2022/08/04 04:04:01;;;;;;;7.25;4.95;;;19.80;99.90;;;;;;5039182;28;20075;-76
2022/08/04 04:06:33;;;;;;;11.15;5.45;;;19.80;99.90;;;;;;5034554;28;20113;-77
2022/08/04 04:09:19;;;;;;;9.30;5.85;;;19.80;99.90;;;;;;5034122;28;20039;-77
2022/08/04 04:12:22;;;;;;;9.55;4.82;;;19.80;99.90;;;;;;5034501;28;20025;-77
2022/08/04 04:14:57;;;;;;;10.40;5.90;;;19.80;99.90;;;;;;5034006;28;20144;-76
2022/08/04 04:17:54;;;;;;;11.13;4.80;;;19.80;99.90;;;;;;5034064;28;20033;-76
2022/08/04 04:20:29;;;;;;;7.22;4.57;;;19.90;99.90;;;;;;5034311;28;20079;-76
2022/08/04 04:23:13;;;;;;;8.70;4.95;;;19.90;99.90;;;;;;5035092;28;20033;-76
2022/08/04 04:26:06;;;;;;;9.30;4.93;;;20.00;99.90;;;;;;5018038;28;20079;-78
2022/08/04 04:28:47;;;;;;;7.82;5.10;;;20.10;99.90;;;;;;5034448;28;20039;-76
2022/08/04 04:31:36;;;;;;;12.43;5.22;;;20.10;99.90;;;;;;5034849;28;20025;-77
2022/08/04 04:34:29;;;;;;;18.02;5.72;;;20.20;99.90;;;;;;5035318;28;20120;-77
2022/08/04 04:37:20;;;;;;;13.40;5.57;;;20.20;99.90;;;;;;5035599;28;20037;-76
2022/08/04 04:40:23;;;;;;;17.17;5.45;;;20.30;99.90;;;;;;5034550;28;20108;-77
2022/08/04 04:43:14;;;;;;;18.67;6.15;;;20.30;99.90;;;;;;5035213;28;20108;-77
2022/08/04 04:46:09;;;;;;;14.88;6.07;;;20.40;99.90;;;;;;5017481;28;20041;-77
2022/08/04 04:51:19;;;;;;;13.68;6.47;;;20.50;99.90;;;;;;5156649;22;20034;-89
2022/08/04 04:53:52;;;;;;;15.02;6.10;;;20.70;99.90;;;;;;5040763;28;20020;-91
2022/08/04 04:56:27;;;;;;;13.35;6.00;;;20.80;99.90;;;;;;5023547;28;20014;-89
2022/08/04 04:58:55;;;;;;;11.23;5.65;;;20.90;99.90;;;;;;5006805;28;20101;-90
2022/08/04 05:01:50;;;;;;;7.57;5.35;;;21.00;99.90;;;;;;5007542;28;20016;-90
2022/08/04 05:04:45;;;;;;;11.57;5.65;;;21.10;99.90;;;;;;5023961;28;20041;-90
2022/08/04 05:07:30;;;;;;;13.60;5.55;;;21.40;99.90;;;;;;5007301;28;20009;-89
2022/08/04 05:10:07;;;;;;;10.95;5.22;;;21.60;99.90;;;;;;5007321;28;20012;-88
2022/08/04 05:13:16;;;;;;;11.52;5.47;;;21.60;99.90;;;;;;5023526;28;20006;-89
2022/08/04 05:15:46;;;;;;;14.20;6.32;;;21.70;99.90;;;;;;5026413;28;20083;-87
2022/08/04 05:18:20;;;;;;;12.05;5.80;;;21.70;99.90;;;;;;5008646;28;20042;-85
2022/08/04 05:20:54;;;;;;;13.27;5.88;;;21.80;99.90;;;;;;5030107;28;20026;-85
2022/08/04 05:23:36;;;;;;;11.20;6.45;;;21.80;99.90;;;;;;5018996;28;20065;-86
2022/08/04 05:26:09;;;;;;;13.55;5.97;;;22.00;99.90;;;;;;5032632;28;20044;-87
2022/08/04 05:28:44;;;;;;;14.90;5.90;;;22.40;99.90;;;;;;5030280;28;20033;-86
2022/08/04 05:31:14;;;;;;;17.48;7.05;;;22.50;99.90;;;;;;5031062;28;20033;-86
2022/08/04 05:33:47;;;;;;;15.25;6.07;;;22.60;99.90;;;;;;5029371;28;20030;-84
2022/08/04 05:36:17;;;;;;;13.20;6.00;;;22.80;99.90;;;;;;5014186;28;20010;-87
2022/08/04 05:38:46;;;;;;;10.90;6.78;;;22.90;99.90;;;;;;5033343;28;20059;-83
2022/08/04 05:41:13;;;;;;;16.38;5.78;;;22.80;99.90;;;;;;5032196;28;20172;-87
2022/08/04 05:43:43;;;;;;;12.98;7.07;;;22.90;99.90;;;;;;5012547;28;20026;-86
2022/08/04 05:46:11;;;;;;;13.68;6.55;;;22.90;99.90;;;;;;5025008;28;20032;-85
2022/08/04 05:48:37;;;;;;;14.32;6.60;;;22.80;99.90;;;;;;5036391;28;20178;-84
2022/08/04 05:51:07;;;;;;;13.27;6.72;;;22.80;99.90;;;;;;5017518;28;20064;-87
2022/08/04 05:53:34;;;;;;;16.70;7.00;;;22.90;99.90;;;;;;5038462;28;20025;-88
2022/08/04 05:56:02;;;;;;;19.60;7.07;;;22.90;99.90;;;;;;5033754;28;20025;-88
2022/08/04 05:58:29;;;;;;;17.35;6.88;;;22.90;99.90;;;;;;5032347;28;20022;-89
2022/08/04 06:00:58;;;;;;;12.80;7.00;;;23.00;99.90;;;;;;5044145;28;20014;-85
2022/08/04 06:03:26;;;;;;;17.88;7.22;;;23.00;99.90;;;;;;5045731;28;20021;-87
2022/08/04 06:05:53;;;;;;;17.25;7.05;;;23.00;99.90;;;;;;5045237;28;20009;-87
2022/08/04 06:08:19;;;;;;;14.82;7.00;;;23.00;99.90;;;;;;5047100;28;20030;-87
2022/08/04 06:10:47;;;;;;;11.80;6.28;;;23.10;99.90;;;;;;5048201;28;20485;-87
2022/08/04 06:13:16;;;;;;;21.23;6.93;;;23.10;99.90;;;;;;5046542;28;20096;-86
2022/08/04 06:15:47;;;;;;;10.02;6.82;;;23.20;99.90;;;;;;5052295;28;20032;-90
2022/08/04 06:18:13;;;;;;;24.60;6.55;;;23.20;99.90;;;;;;5043236;28;20373;-89
2022/08/04 06:20:42;;;;;;;19.85;6.97;;;23.30;99.90;;;;;;5033783;28;20026;-88
2022/08/04 06:23:12;;;;;;;21.45;7.05;;;23.40;99.90;;;;;;5027029;28;20030;-90
2022/08/04 06:25:46;;;;;;;12.57;6.25;;;23.50;99.90;;;;;;5022693;28;20521;-88
2022/08/04 06:28:14;;;;;;;11.70;5.70;;;23.60;99.90;;;;;;5005862;28;20113;-88
2022/08/04 06:30:40;;;;;;;11.07;5.45;;;23.70;99.90;;;;;;5013391;28;20105;-89
2022/08/04 06:33:26;;;;;;;11.40;6.57;;;23.70;99.90;;;;;;5029766;28;20029;-89
2022/08/04 06:35:54;;;;;;;8.23;5.95;;;23.80;99.90;;;;;;5035629;28;20044;-86
2022/08/04 06:38:23;;;;;;;17.85;6.65;;;24.00;99.90;;;;;;5041380;28;20054;-89
2022/08/04 06:40:49;;;;;;;14.38;6.22;;;24.10;99.90;;;;;;5006913;28;20021;-88
2022/08/04 06:43:15;;;;;;;11.18;6.00;;;23.90;99.90;;;;;;5026696;28;20052;-86
2022/08/04 06:45:48;;;;;;;9.70;5.32;;;24.00;99.90;;;;;;5027379;28;20017;-85
2022/08/04 06:48:16;;;;;;;9.60;5.13;;;24.10;99.90;;;;;;5040928;28;20014;-83
2022/08/04 06:50:46;;;;;;;14.80;6.35;;;24.20;99.90;;;;;;5042192;28;20033;-85
2022/08/04 06:53:12;;;;;;;12.95;5.65;;;24.30;99.90;;;;;;5031054;28;20044;-88
2022/08/04 06:55:41;;;;;;;7.28;4.53;;;24.40;99.90;;;;;;5035743;28;20093;-86
2022/08/04 06:58:08;;;;;;;11.77;5.18;;;24.60;99.40;;;;;;5012977;28;20035;-88
2022/08/04 07:00:35;;;;;;;7.55;4.70;;;24.80;98.80;;;;;;5026697;28;20486;-86
2022/08/04 07:03:02;;;;;;;7.35;4.65;;;24.80;98.00;;;;;;5022890;28;20034;-87
2022/08/04 07:05:29;;;;;;;10.07;4.55;;;24.90;96.60;;;;;;4984647;28;20039;-86
2022/08/04 07:07:56;;;;;;;16.20;4.85;;;24.80;96.10;;;;;;5001402;28;20030;-85
2022/08/04 07:10:23;;;;;;;7.15;4.78;;;24.90;96.20;;;;;;5001017;28;20454;-87
2022/08/04 07:12:50;;;;;;;7.63;4.18;;;25.00;95.40;;;;;;5002384;28;20052;-87
2022/08/04 07:15:17;;;;;;;12.32;4.60;;;25.10;95.30;;;;;;5004071;28;20053;-88
2022/08/04 07:17:45;;;;;;;7.65;4.38;;;25.00;94.80;;;;;;5002491;28;20031;-89
2022/08/04 07:20:11;;;;;;;8.65;4.47;;;25.00;95.00;;;;;;5002609;28;20018;-88
2022/08/04 07:22:39;;;;;;;9.15;4.90;;;24.80;95.00;;;;;;5010483;28;20049;-87
2022/08/04 07:25:09;;;;;;;11.43;5.03;;;24.70;95.80;;;;;;5018465;28;20033;-88
2022/08/04 07:27:35;;;;;;;11.25;4.43;;;24.70;95.60;;;;;;5026309;28;20165;-90
2022/08/04 07:30:04;;;;;;;8.80;4.38;;;24.80;95.90;;;;;;5019055;28;20021;-87
2022/08/04 07:32:31;;;;;;;6.70;4.43;;;24.80;95.50;;;;;;5017270;28;20025;-88
2022/08/04 07:34:58;;;;;;;7.95;5.00;;;24.70;95.80;;;;;;5046608;28;20029;-89
2022/08/04 07:37:24;;;;;;;10.20;4.50;;;24.80;95.90;;;;;;5058811;28;20150;-88
2022/08/04 07:39:50;;;;;;;13.32;5.13;;;24.90;96.10;;;;;;5041786;28;20061;-89
2022/08/04 07:42:20;;;;;;;13.52;4.53;;;25.00;95.60;;;;;;5035335;28;20084;-88
2022/08/04 07:44:47;;;;;;;5.68;4.38;;;25.10;95.30;;;;;;5034341;28;20078;-89
2022/08/04 07:47:19;;;;;;;7.63;4.57;;;25.10;95.70;;;;;;5039184;28;20018;-87
2022/08/04 07:51:04;;;;;;;8.98;4.78;;;25.10;95.90;;;;;;5041383;28;20108;-87
2022/08/04 07:53:34;;;;;;;6.45;4.20;;;25.30;95.70;;;;;;5051515;28;20045;-87
2022/08/04 07:56:15;;;;;;;;;;;;;;;;;;;;;
2022/08/04 07:58:45;;;;;;;5.43;4.10;;;25.50;95.00;;;;;;5058141;28;20014;-86
2022/08/04 08:01:18;;;;;;;7.32;4.13;;;25.70;94.90;;;;;;5042316;28;20021;-88
2022/08/04 08:03:54;;;;;;;8.70;3.97;;;25.60;94.30;;;;;;5041789;28;20033;-88
2022/08/04 08:06:28;;;;;;;5.53;4.18;;;25.60;94.50;;;;;;5022662;28;20072;-89
2022/08/04 08:08:55;;;;;;;10.10;3.97;;;25.60;94.40;;;;;;5041382;28;20024;-87
2022/08/04 08:11:27;;;;;;;9.23;4.60;;;25.80;94.60;;;;;;5025399;28;20027;-87
2022/08/04 08:14:08;;;;;;;8.35;3.85;;;25.90;94.40;;;;;;5041325;28;20021;-87
2022/08/04 08:17:16;;;;;;;13.13;4.20;;;26.00;94.30;;;;;;5041738;28;20212;-85
2022/08/04 08:19:54;;;;;;;5.50;3.58;;;26.20;94.40;;;;;;5041313;28;20021;-88
2022/08/04 08:22:23;;;;;;;11.02;4.28;;;26.40;94.00;;;;;;5041414;28;20061;-84
2022/08/04 08:24:52;;;;;;;9.30;3.65;;;26.40;93.10;;;;;;5058979;28;20085;-86
2022/08/04 08:27:23;;;;;;;13.80;3.72;;;26.50;93.20;;;;;;5041576;28;20021;-88
2022/08/04 08:30:24;;;;;;;6.47;3.60;;;26.60;93.20;;;;;;5045155;28;20041;-87
2022/08/04 08:33:48;;;;;;;7.47;3.58;;;26.60;92.10;;;;;;5034993;28;20032;-88
2022/08/04 08:36:36;;;;;;;;;;;26.60;92.50;;;;;;5020456;28;20038;-86
2022/08/04 08:39:26;;;;;;;5.13;3.75;;;26.80;92.90;;;;;;5005534;28;19914;-88
2022/08/04 08:42:33;;;;;;;6.32;3.45;;;27.00;92.00;;;;;;5020922;28;20021;-87
2022/08/04 08:46:11;;;;;;;7.13;3.25;;;27.10;92.40;;;;;;5006751;28;20030;-86
2022/08/04 08:49:22;;;;;;;6.20;3.53;;;27.30;91.70;;;;;;4999882;28;20105;-88
2022/08/04 08:52:34;;;;;;;5.63;3.55;;;27.40;91.50;;;;;;5021641;28;20038;-88
2022/08/04 08:55:31;;;;;;;5.25;3.10;;;27.30;91.40;;;;;;5005354;28;20026;-86
2022/08/04 08:58:39;;;;;;;8.70;3.10;;;27.40;90.90;;;;;;5005594;28;20042;-85
2022/08/04 09:01:33;;;;;;;11.95;3.63;;;27.50;90.90;;;;;;5038648;28;20026;-85
2022/08/04 09:04:41;;;;;;;8.70;3.10;;;27.60;90.60;;;;;;5005523;28;20034;-85
2022/08/04 09:08:20;;;;;;;4.30;3.28;;;27.70;90.50;;;;;;5025235;28;20024;-87
2022/08/04 09:11:34;;;;;;;;;;;;;;;;;;;;;
2022/08/04 09:14:40;;;;;;;9.77;3.50;;;27.80;90.60;;;;;;5021507;28;20089;-86
2022/08/04 09:17:12;;;;;;;;;;;28.00;89.70;;;;;;5004821;28;20033;-85
2022/08/04 09:19:41;;;;;;;6.32;3.38;;;28.10;89.60;;;;;;5005271;28;19924;-85
2022/08/04 09:22:24;;;;;;;7.93;3.58;;;28.20;89.40;;;;;;5037010;28;20077;-87
2022/08/04 09:25:27;;;;;;;4.65;3.15;;;28.20;89.40;;;;;;5016017;28;20094;-87
2022/08/04 09:28:17;;;;;;;13.60;3.42;;;28.40;87.90;;;;;;5013729;28;20050;-88
2022/08/04 09:30:58;;;;;;;9.15;2.92;;;28.50;87.90;;;;;;5019480;28;20094;-86
2022/08/04 09:33:58;;;;;;;4.13;3.08;;;28.60;87.20;;;;;;5020027;28;20033;-86
2022/08/04 09:37:15;;;;;;;7.57;2.80;;;28.80;86.50;;;;;;5020423;28;20137;-86
2022/08/04 09:40:14;;;;;;;6.53;3.08;;;29.10;86.70;;;;;;5019089;28;20045;-86
2022/08/04 09:43:50;;;;;;;6.88;3.13;;;29.50;85.20;;;;;;5017697;28;20093;-87
2022/08/04 09:47:39;;;;;;;10.20;3.15;;;30.40;83.50;;;;;;5023584;28;20049;-87
2022/08/04 09:53:53;;;;;;;7.25;3.15;;;32.80;75.50;;;;;;5032828;28;20025;-87
2022/08/04 09:56:40;;;;;;;7.20;2.70;;;33.40;71.60;;;;;;5052347;28;20028;-87
2022/08/04 09:59:18;;;;;;;4.28;2.80;;;33.80;69.80;;;;;;5029042;28;20041;-86
2022/08/04 10:01:45;;;;;;;15.48;2.92;;;34.50;67.40;;;;;;5019781;28;20497;-86
2022/08/04 10:04:24;;;;;;;4.13;2.20;;;34.90;66.80;;;;;;5057622;28;20024;-88
2022/08/04 10:07:37;;;;;;;7.15;2.90;;;35.40;64.50;;;;;;5054109;28;20082;-87
2022/08/04 10:15:05;;;;;;;2.97;2.58;;;37.00;61.10;;;;;;5043824;28;20048;-89
2022/08/04 10:18:34;;;;;;;6.22;2.25;;;38.70;56.00;;;;;;5024373;28;20052;-88
2022/08/04 10:21:34;;;;;;;;;;;;;;;;;;;;;
2022/08/04 10:24:49;;;;;;;7.37;2.37;;;40.80;50.90;;;;;;5020668;28;20056;-87
2022/08/04 10:28:21;;;;;;;8.05;2.28;;;41.80;48.80;;;;;;5015437;28;20037;-87
2022/08/04 10:31:28;;;;;;;3.75;2.15;;;42.70;46.90;;;;;;5038730;28;20030;-88
2022/08/04 10:34:28;;;;;;;2.58;2.10;;;43.80;45.40;;;;;;5039140;28;20068;-88
2022/08/04 10:37:49;;;;;;;4.45;1.83;;;43.80;43.60;;;;;;5002221;28;20080;-88
2022/08/04 10:41:41;;;;;;;3.92;1.88;;;43.70;42.80;;;;;;4988044;28;20169;-87
2022/08/04 10:44:39;;;;;;;6.20;2.05;;;43.10;43.20;;;;;;4999997;28;20058;-88
2022/08/04 10:47:35;;;;;;;4.47;2.00;;;43.50;42.70;;;;;;4990802;28;20490;-87
2022/08/04 10:50:02;;;;;;;3.67;2.00;;;44.10;41.90;;;;;;5010818;23;20438;-83
2022/08/04 10:52:32;;;;;;;4.07;2.13;;;43.90;41.80;;;;;;4982729;28;20105;-80
2022/08/04 10:55:22;;;;;;;3.15;1.73;;;44.60;41.80;;;;;;4982845;28;20374;-81
2022/08/04 10:58:01;;;;;;;5.80;1.90;;;46.00;41.00;;;;;;5003269;28;20030;-81
2022/08/04 11:00:29;;;;;;;5.57;2.25;;;46.60;40.50;;;;;;5008750;28;20030;-81
2022/08/04 11:03:29;;;;;;;4.82;2.13;;;46.30;40.50;;;;;;4995250;28;20025;-81
2022/08/04 11:06:02;;;;;;;7.15;1.90;;;46.10;39.90;;;;;;5010998;28;20027;-82
2022/08/04 11:08:35;;;;;;;9.75;2.17;;;46.60;39.60;;;;;;5009309;28;20086;-79
2022/08/04 11:11:20;;;;;;;2.85;1.85;;;46.70;39.30;;;;;;5012426;28;20030;-80
2022/08/04 11:14:00;;;;;;;4.15;2.15;;;45.70;39.30;;;;;;5013107;28;20041;-81
2022/08/04 11:16:50;;;;;;;3.75;1.90;;;45.60;39.60;;;;;;4992438;28;20053;-79
2022/08/04 11:19:31;;;;;;;2.35;1.92;;;46.30;39.30;;;;;;5010325;28;20398;-80
2022/08/04 11:22:05;;;;;;;6.73;2.00;;;47.00;38.90;;;;;;5009883;28;20080;-81
2022/08/04 11:24:49;;;;;;;8.85;2.10;;;46.50;38.70;;;;;;5008582;28;20084;-82
2022/08/04 11:27:26;;;;;;;5.53;2.38;;;46.50;38.60;;;;;;5006288;28;20034;-81
2022/08/04 11:30:00;;;;;;;2.67;1.83;;;47.00;38.20;;;;;;5007511;28;20034;-81
2022/08/04 11:32:36;;;;;;;5.70;1.77;;;47.30;38.10;;;;;;5008968;28;20026;-82
2022/08/04 11:35:06;;;;;;;3.90;1.77;;;48.10;38.00;;;;;;5005253;28;20536;-82
2022/08/04 11:38:08;;;;;;;3.58;1.88;;;48.00;37.80;;;;;;5005733;28;20048;-82
2022/08/04 11:40:48;;;;;;;6.40;2.25;;;47.00;38.10;;;;;;4977129;28;20582;-81
2022/08/04 11:43:54;;;;;;;13.02;2.47;;;46.50;37.90;;;;;;4985355;28;20625;-81
2022/08/04 11:46:31;;;;;;;5.03;2.33;;;45.30;38.70;;;;;;5001389;28;20034;-82
2022/08/04 11:49:21;;;;;;;10.40;2.05;;;46.10;38.50;;;;;;5003368;28;20453;-81
2022/08/04 11:51:50;;;;;;;7.18;2.10;;;46.40;38.00;;;;;;5003843;28;20046;-82
2022/08/04 11:54:17;;;;;;;4.63;2.30;;;45.90;38.10;;;;;;5014556;28;20014;-81
2022/08/04 11:56:43;;;;;;;3.80;2.00;;;44.90;38.80;;;;;;5015686;28;20538;-82
2022/08/04 11:59:09;;;;;;;4.32;2.25;;;44.40;38.80;;;;;;5004756;28;20153;-82
2022/08/04 12:02:20;;;;;;;4.90;1.88;;;44.10;38.70;;;;;;5006014;28;20518;-82
2022/08/04 12:05:03;;;;;;;2.97;2.40;;;44.50;38.40;;;;;;4984471;28;20505;-82
2022/08/04 12:07:48;;;;;;;3.10;1.92;;;45.10;38.40;;;;;;4986894;28;20026;-81
2022/08/04 12:10:31;;;;;;;2.83;2.55;;;46.30;38.20;;;;;;5007727;28;20038;-82
2022/08/04 12:13:34;;;;;;;4.53;1.98;;;47.60;37.50;;;;;;4989405;28;20045;-83
2022/08/04 12:16:11;;;;;;;6.90;2.15;;;46.20;37.50;;;;;;4989076;28;20039;-81
2022/08/04 12:18:50;;;;;;;3.15;2.53;;;46.60;37.80;;;;;;4982838;28;20027;-81
2022/08/04 12:21:44;;;;;;;2.45;2.13;;;46.00;37.80;;;;;;5001811;28;20034;-82
2022/08/04 12:24:19;;;;;;;3.38;1.65;;;46.50;37.60;;;;;;4990036;28;20446;-81
2022/08/04 12:26:54;;;;;;;2.90;1.67;;;46.80;37.60;;;;;;4984211;28;20062;-82
2022/08/04 12:29:22;;;;;;;2.83;2.00;;;47.40;37.50;;;;;;4982221;28;20058;-81
2022/08/04 12:31:57;;;;;;;2.70;1.90;;;47.70;37.40;;;;;;4994008;28;20034;-83
2022/08/04 12:34:32;;;;;;;1.67;1.58;;;48.60;37.10;;;;;;5014563;28;20034;-82
2022/08/04 12:37:08;;;;;;;2.35;1.90;;;49.50;36.40;;;;;;5016241;28;20033;-82
2022/08/04 12:39:37;;;;;;;3.75;1.70;;;49.20;36.20;;;;;;5016545;28;20082;-81
2022/08/04 12:42:22;;;;;;;2.88;2.05;;;49.00;36.20;;;;;;4996485;28;20010;-80
2022/08/04 12:44:53;;;;;;;2.50;2.08;;;49.10;36.20;;;;;;5014303;28;20080;-81
2022/08/04 12:47:26;;;;;;;3.17;1.92;;;48.80;36.10;;;;;;4997731;28;20022;-80
2022/08/04 12:49:54;;;;;;;5.53;1.77;;;48.50;36.40;;;;;;5013337;28;20045;-81
2022/08/04 12:52:20;;;;;;;4.00;2.10;;;48.80;36.30;;;;;;5020891;28;20054;-82
2022/08/04 12:54:53;;;;;;;5.07;2.10;;;49.00;36.20;;;;;;5013578;28;20038;-82
2022/08/04 12:57:22;;;;;;;5.05;2.15;;;49.60;35.90;;;;;;5023140;28;20462;-81
2022/08/04 12:59:49;;;;;;;8.88;1.75;;;49.30;35.80;;;;;;5018699;28;20096;-82
2022/08/04 13:02:22;;;;;;;4.68;1.70;;;48.30;36.20;;;;;;5019072;28;20097;-81
2022/08/04 13:04:49;;;;;;;5.65;1.85;;;48.00;36.30;;;;;;5016604;28;20084;-80
2022/08/04 13:07:19;;;;;;;8.75;2.00;;;47.90;36.90;;;;;;5018870;28;20026;-82
2022/08/04 13:09:46;;;;;;;4.25;1.88;;;48.40;36.10;;;;;;5014610;28;20102;-84
2022/08/04 13:12:16;;;;;;;2.65;2.05;;;48.80;35.90;;;;;;4998835;28;20026;-83
2022/08/04 13:14:43;;;;;;;3.45;1.65;;;48.70;35.80;;;;;;5023324;28;20033;-82
2022/08/04 13:17:13;;;;;;;1.80;1.70;;;49.10;36.00;;;;;;5016805;28;20088;-82
2022/08/04 13:19:46;;;;;;;5.50;1.77;;;48.70;35.80;;;;;;4993990;28;20047;-82
2022/08/04 13:22:15;;;;;;;3.55;1.60;;;48.20;36.10;;;;;;5007208;28;20114;-81
2022/08/04 13:24:42;;;;;;;5.05;1.60;;;47.90;36.10;;;;;;4993876;28;20055;-80
2022/08/04 13:27:12;;;;;;;1.83;1.63;;;48.10;36.20;;;;;;5007353;28;20039;-82
2022/08/04 13:29:43;;;;;;;2.40;1.83;;;48.70;36.00;;;;;;5014185;28;20311;-81
2022/08/04 13:32:14;;;;;;;2.35;1.70;;;48.30;35.90;;;;;;5006126;28;20101;-82
2022/08/04 13:34:42;;;;;;;4.00;1.88;;;48.30;35.90;;;;;;4989037;28;20089;-82
2022/08/04 13:37:10;;;;;;;2.00;1.80;;;48.00;36.10;;;;;;5002947;28;20041;-82
2022/08/04 13:39:37;;;;;;;3.85;1.70;;;47.60;36.20;;;;;;4996161;28;20022;-81
2022/08/04 13:42:09;;;;;;;5.22;2.03;;;47.20;36.50;;;;;;5006651;28;20082;-81
2022/08/04 13:44:37;;;;;;;2.35;1.83;;;46.90;36.80;;;;;;5007583;28;20041;-82
2022/08/04 13:47:11;;;;;;;1.98;1.80;;;47.40;36.50;;;;;;5006197;28;20022;-82
2022/08/04 13:49:37;;;;;;;2.75;2.15;;;48.10;36.90;;;;;;4995679;28;20034;-83
2022/08/04 13:52:05;;;;;;;5.03;2.00;;;48.30;36.30;;;;;;5003886;28;20030;-81
2022/08/04 13:54:39;;;;;;;2.92;1.50;;;48.70;36.00;;;;;;4998165;28;20033;-82
2022/08/04 13:57:14;;;;;;;2.05;1.67;;;49.40;35.60;;;;;;4983178;28;20037;-82
2022/08/04 13:59:46;;;;;;;8.90;2.08;;;49.30;35.90;;;;;;4998187;28;20106;-81
2022/08/04 14:02:33;;;;;;;4.97;1.77;;;49.20;35.80;;;;;;5000380;28;20045;-82
2022/08/04 14:05:07;;;;;;;3.55;1.80;;;49.10;35.70;;;;;;4996538;28;20038;-81
2022/08/04 14:07:44;;;;;;;3.40;1.98;;;49.40;35.60;;;;;;5014361;28;20057;-82